CheckWX is a tool to help pilots better visualize weather data.  It is not intended as a substitute for an official pre-flight weather briefing.

23:48:06 UTC

KBUR TAF
Bob Hope Airport
Burbank, California, USA
KBUR 222333Z 2300/2324 19008KT P6SM SKC FM230300 34005KT P6SM SKC FM231000 VRB03KT P6SM SKC FM232200 17007KT P6SM SKC

Oct-23@
00:00 UTC

Oct-23 @ 00:00 UTC

Oct-23@
03:00 UTC

Oct-23 @ 03:00 UTC

KBUR 222333Z 2300/2324 19008KT P6SM SKC
Wind
  • 190° at 8 KTS
Cloud Levels
  • Clear skies

Oct-23@
03:00 UTC

Oct-23 @ 03:00 UTC

Oct-23@
10:00 UTC

Oct-23 @ 10:00 UTC

FM230300 34005KT P6SM SKC

From

From Standard forecast or significant change

Wind
  • 340° at 5 KTS
Cloud Levels
  • Clear skies

Oct-23@
10:00 UTC

Oct-23 @ 10:00 UTC

Oct-23@
22:00 UTC

Oct-23 @ 22:00 UTC

FM231000 VRB03KT P6SM SKC

From

From Standard forecast or significant change

Wind
  • Variable at 3 KTS
Cloud Levels
  • Clear skies

Oct-23@
22:00 UTC

Oct-23 @ 22:00 UTC

Oct-24@
00:00 UTC

Oct-24 @ 00:00 UTC

FM232200 17007KT P6SM SKC

From

From Standard forecast or significant change

Wind
  • 170° at 7 KTS
Cloud Levels
  • Clear skies